Time;durP1;ratioP1;P1;durP2;ratioP2;P2;SDS_P1;SDS_P2;PMS_P1;PMS_P2;Temp;Humidity;BMP_temperature;BMP_pressure;BME280_temperature;BME280_humidity;BME280_pressure;Samples;Min_cycle;Max_cycle;Signal;HPM_P1;HPM_P2
2022/10/13 00:00:29;;;;;;;46.28;27.73;;;11.00;99.90;;;;;;5073250;28;20467;-52
2022/10/13 00:02:57;;;;;;;50.00;30.25;;;11.00;99.90;;;;;;5072765;28;20032;-55
2022/10/13 00:05:23;;;;;;;50.95;31.55;;;11.10;99.90;;;;;;5072781;28;20021;-53
2022/10/13 00:07:49;;;;;;;46.13;29.20;;;11.00;99.90;;;;;;5072765;28;20090;-54
2022/10/13 00:10:14;;;;;;;42.92;29.10;;;11.10;99.90;;;;;;5072510;28;20044;-56
2022/10/13 00:12:40;;;;;;;48.25;28.73;;;11.10;99.90;;;;;;5072966;28;20028;-57
2022/10/13 00:15:08;;;;;;;45.20;30.50;;;11.10;99.90;;;;;;5072521;28;20020;-54
2022/10/13 00:17:35;;;;;;;51.70;31.63;;;11.10;99.90;;;;;;5072617;28;20058;-52
2022/10/13 00:20:02;;;;;;;39.25;28.88;;;11.10;99.90;;;;;;5072657;28;20020;-56
2022/10/13 00:22:28;;;;;;;38.60;28.50;;;11.10;99.90;;;;;;5072449;28;20044;-55
2022/10/13 00:24:55;;;;;;;44.53;28.38;;;11.20;99.90;;;;;;5072519;28;20496;-55
2022/10/13 00:27:21;;;;;;;45.40;30.70;;;11.20;99.90;;;;;;5072543;28;20028;-55
2022/10/13 00:29:46;;;;;;;40.30;27.67;;;11.20;99.90;;;;;;5072592;28;20027;-55
2022/10/13 00:32:12;;;;;;;49.42;28.40;;;11.20;99.90;;;;;;5072179;28;20407;-55
2022/10/13 00:34:38;;;;;;;43.58;27.13;;;11.30;99.90;;;;;;5072182;28;20417;-55
2022/10/13 00:37:04;;;;;;;40.72;27.13;;;11.30;99.90;;;;;;5070886;28;20466;-53
2022/10/13 00:39:30;;;;;;;38.40;29.38;;;11.30;99.90;;;;;;5072499;28;20031;-53
2022/10/13 00:41:57;;;;;;;43.75;30.63;;;11.30;99.90;;;;;;5072000;28;20108;-54
2022/10/13 00:44:56;;;;;;;44.65;30.23;;;11.20;99.90;;;;;;5072118;28;20120;-56
2022/10/13 00:47:24;;;;;;;53.15;29.05;;;11.20;99.90;;;;;;5071929;28;20025;-54
2022/10/13 00:49:51;;;;;;;42.13;28.90;;;11.20;99.90;;;;;;5071893;28;20024;-53
2022/10/13 00:52:19;;;;;;;55.60;31.17;;;11.20;99.90;;;;;;5072047;28;20024;-56
2022/10/13 00:54:45;;;;;;;46.42;28.10;;;11.20;99.90;;;;;;5072063;28;20340;-56
2022/10/13 00:57:11;;;;;;;43.03;28.60;;;11.10;99.90;;;;;;5070961;28;20039;-52
2022/10/13 00:59:39;;;;;;;47.08;30.52;;;11.10;99.90;;;;;;5071866;28;20430;-56
2022/10/13 01:02:05;;;;;;;52.03;31.40;;;11.10;99.90;;;;;;5071636;28;20055;-53
2022/10/13 01:04:38;;;;;;;53.42;31.23;;;11.10;99.90;;;;;;5071774;28;20404;-53
2022/10/13 01:07:05;;;;;;;43.42;30.13;;;11.10;99.90;;;;;;5071420;28;20356;-53
2022/10/13 01:09:36;;;;;;;51.17;32.08;;;11.10;99.90;;;;;;5071473;28;20060;-53
2022/10/13 01:12:29;;;;;;;45.55;28.40;;;11.10;99.90;;;;;;5071429;28;20016;-53
2022/10/13 01:15:00;;;;;;;48.05;29.13;;;11.20;99.90;;;;;;5071517;28;20020;-56
2022/10/13 01:18:06;;;;;;;49.33;31.52;;;11.20;99.90;;;;;;5071465;28;20027;-56
2022/10/13 01:20:51;;;;;;;45.17;28.35;;;11.20;99.90;;;;;;5071406;28;20024;-55
2022/10/13 01:23:48;;;;;;;47.90;28.20;;;11.20;99.90;;;;;;5071245;28;20017;-52
2022/10/13 01:26:34;;;;;;;41.78;27.65;;;11.30;99.90;;;;;;5071028;28;20310;-53
2022/10/13 01:29:37;;;;;;;38.75;29.48;;;11.30;99.90;;;;;;5069516;28;20040;-56
2022/10/13 01:32:25;;;;;;;45.15;29.92;;;11.30;99.90;;;;;;5071043;28;20365;-54
2022/10/13 01:34:54;;;;;;;42.33;28.77;;;11.20;99.90;;;;;;5071084;28;20028;-54
2022/10/13 01:37:52;;;;;;;45.75;26.98;;;11.30;99.90;;;;;;5070881;28;20028;-53
2022/10/13 01:40:22;;;;;;;40.45;27.08;;;11.30;99.90;;;;;;5060628;28;20032;-53
2022/10/13 01:43:00;;;;;;;43.47;28.02;;;11.30;99.90;;;;;;5070988;28;20527;-55
2022/10/13 01:46:21;;;;;;;40.88;28.75;;;11.20;99.90;;;;;;5071243;28;20020;-54
2022/10/13 01:48:49;;;;;;;49.75;28.20;;;11.20;99.90;;;;;;5067509;28;20458;-54
2022/10/13 01:51:18;;;;;;;43.72;29.05;;;11.30;99.90;;;;;;5069329;28;20032;-55
2022/10/13 01:53:46;;;;;;;46.22;28.52;;;11.20;99.90;;;;;;5070766;28;20036;-52
2022/10/13 01:56:11;;;;;;;40.42;28.52;;;11.20;99.90;;;;;;5070729;28;20343;-53
2022/10/13 01:58:38;;;;;;;41.72;28.27;;;11.20;99.90;;;;;;5070698;28;20071;-53
2022/10/13 02:01:36;;;;;;;42.13;27.10;;;11.20;99.90;;;;;;5070634;28;20111;-54
2022/10/13 02:04:07;;;;;;;39.10;27.15;;;11.20;99.90;;;;;;5070474;28;20020;-55
2022/10/13 02:06:46;;;;;;;43.55;29.00;;;11.30;99.90;;;;;;5069154;28;20106;-55
2022/10/13 02:09:34;;;;;;;41.45;28.38;;;11.20;99.90;;;;;;5070377;28;20064;-55
2022/10/13 02:12:24;;;;;;;44.25;29.15;;;11.20;99.90;;;;;;5070339;28;20032;-53
2022/10/13 02:14:54;;;;;;;33.85;26.60;;;11.20;99.90;;;;;;5068841;28;20183;-55
2022/10/13 02:17:20;;;;;;;42.13;27.25;;;11.20;99.90;;;;;;5070241;28;20397;-55
2022/10/13 02:19:46;;;;;;;39.63;28.80;;;11.20;99.90;;;;;;5070801;28;20047;-55
2022/10/13 02:22:14;;;;;;;40.72;28.52;;;11.20;99.90;;;;;;5070388;28;20483;-55
2022/10/13 02:24:40;;;;;;;47.33;28.33;;;11.20;99.90;;;;;;5070592;28;20539;-55
2022/10/13 02:27:07;;;;;;;40.10;28.50;;;11.20;99.90;;;;;;5070186;28;20427;-57
2022/10/13 02:29:33;;;;;;;43.28;28.08;;;11.20;99.90;;;;;;5070258;28;20103;-53
2022/10/13 02:31:59;;;;;;;49.83;27.10;;;11.20;99.90;;;;;;5070208;28;20427;-54
2022/10/13 02:34:24;;;;;;;51.58;28.77;;;11.20;99.90;;;;;;5070170;28;20066;-55
2022/10/13 02:36:50;;;;;;;38.20;27.33;;;11.20;99.90;;;;;;5070173;28;20051;-51
2022/10/13 02:39:16;;;;;;;43.03;29.52;;;11.20;99.90;;;;;;5070132;28;20031;-55
2022/10/13 02:41:42;;;;;;;43.10;28.58;;;11.20;99.90;;;;;;5070175;28;20036;-51
2022/10/13 02:44:08;;;;;;;48.85;29.88;;;11.20;99.90;;;;;;5069897;28;20115;-53
2022/10/13 02:46:34;;;;;;;44.35;27.95;;;11.20;99.90;;;;;;5070302;28;20021;-52
2022/10/13 02:49:00;;;;;;;48.65;29.85;;;11.20;99.90;;;;;;5070074;28;20035;-51
2022/10/13 02:51:26;;;;;;;48.15;28.85;;;11.20;99.90;;;;;;5070138;28;20024;-53
2022/10/13 02:53:52;;;;;;;46.22;29.98;;;11.20;99.90;;;;;;5070148;28;20021;-54
2022/10/13 02:56:18;;;;;;;41.88;29.65;;;11.20;99.90;;;;;;5069855;28;20028;-51
2022/10/13 02:58:44;;;;;;;42.40;29.20;;;11.20;99.90;;;;;;5069938;28;20021;-53
2022/10/13 03:01:14;;;;;;;38.17;27.55;;;11.20;99.90;;;;;;5069971;28;20052;-53
2022/10/13 03:03:40;;;;;;;38.78;28.98;;;11.20;99.90;;;;;;5070049;28;20028;-53
2022/10/13 03:06:07;;;;;;;42.50;29.35;;;11.20;99.90;;;;;;5068453;28;20024;-51
2022/10/13 03:08:33;;;;;;;43.03;28.27;;;11.20;99.90;;;;;;5069920;28;20039;-52
2022/10/13 03:10:59;;;;;;;43.67;29.48;;;11.20;99.90;;;;;;5070240;28;20043;-53
2022/10/13 03:13:25;;;;;;;38.35;27.92;;;11.30;99.90;;;;;;5069882;28;20017;-52
2022/10/13 03:15:51;;;;;;;46.58;30.38;;;11.30;99.90;;;;;;5069846;28;20025;-53
2022/10/13 03:18:16;;;;;;;50.92;31.20;;;11.20;99.90;;;;;;5069935;28;20379;-51
2022/10/13 03:20:42;;;;;;;50.35;32.50;;;11.20;99.90;;;;;;5072686;28;20082;-52
2022/10/13 03:23:08;;;;;;;48.83;31.20;;;11.20;99.90;;;;;;5073427;28;20029;-52
2022/10/13 03:25:34;;;;;;;52.38;30.63;;;11.30;99.90;;;;;;5073528;28;20070;-52
2022/10/13 03:28:28;;;;;;;35.70;28.23;;;11.30;99.90;;;;;;5073555;28;20483;-51
2022/10/13 03:31:02;;;;;;;50.28;30.17;;;11.30;99.90;;;;;;5073488;28;20108;-54
2022/10/13 03:33:28;;;;;;;51.30;31.73;;;11.30;99.90;;;;;;5073626;28;20442;-55
2022/10/13 03:35:57;;;;;;;50.35;32.08;;;11.30;99.90;;;;;;5073373;28;20024;-55
2022/10/13 03:38:23;;;;;;;47.17;30.33;;;11.30;99.90;;;;;;5073497;28;20430;-56
2022/10/13 03:40:48;;;;;;;44.53;30.35;;;11.30;99.90;;;;;;5073488;28;20024;-54
2022/10/13 03:43:14;;;;;;;45.42;30.80;;;11.30;99.90;;;;;;5073177;28;20024;-56
2022/10/13 03:45:41;;;;;;;41.15;30.23;;;11.30;99.90;;;;;;5073187;28;20074;-52
2022/10/13 03:48:06;;;;;;;44.97;31.42;;;11.30;99.90;;;;;;5073100;28;20039;-54
2022/10/13 03:50:32;;;;;;;65.03;31.42;;;11.30;99.90;;;;;;5073074;28;20028;-54
2022/10/13 03:52:57;;;;;;;42.63;29.45;;;11.30;99.90;;;;;;5071868;28;20025;-56
2022/10/13 03:55:23;;;;;;;46.53;30.10;;;11.30;99.90;;;;;;5073043;28;20115;-52
2022/10/13 03:57:49;;;;;;;47.45;31.48;;;11.30;99.90;;;;;;5072919;28;20158;-53
2022/10/13 04:00:23;;;;;;;50.20;30.45;;;11.30;99.90;;;;;;5073027;28;20107;-55
2022/10/13 04:02:49;;;;;;;45.78;29.00;;;11.30;99.90;;;;;;5072914;28;20046;-53
2022/10/13 04:05:15;;;;;;;46.53;30.35;;;11.30;99.90;;;;;;5072586;28;20032;-52
2022/10/13 04:07:41;;;;;;;46.35;28.48;;;11.30;99.90;;;;;;5072960;28;20464;-54
2022/10/13 04:10:07;;;;;;;42.00;29.67;;;11.40;99.90;;;;;;5072648;28;20044;-54
2022/10/13 04:12:32;;;;;;;49.80;29.50;;;11.40;99.90;;;;;;5072679;28;20031;-52
2022/10/13 04:14:58;;;;;;;44.10;27.92;;;11.40;99.90;;;;;;5071235;28;20025;-52
2022/10/13 04:17:23;;;;;;;48.90;28.30;;;11.30;99.90;;;;;;5072742;28;20516;-52
2022/10/13 04:19:49;;;;;;;40.80;27.55;;;11.30;99.90;;;;;;5072541;28;20026;-57
2022/10/13 04:22:15;;;;;;;38.15;28.73;;;11.30;99.90;;;;;;5072419;28;20051;-53
2022/10/13 04:24:40;;;;;;;53.95;31.70;;;11.30;99.90;;;;;;5072682;28;20029;-54
2022/10/13 04:27:06;;;;;;;50.67;31.77;;;11.20;99.90;;;;;;5072379;28;20055;-52
2022/10/13 04:29:32;;;;;;;45.25;32.25;;;11.20;99.90;;;;;;5071192;28;20388;-53
2022/10/13 04:32:00;;;;;;;44.28;29.80;;;11.20;99.90;;;;;;5070980;28;20070;-52
2022/10/13 04:34:26;;;;;;;46.30;31.10;;;11.20;99.90;;;;;;5072201;28;20025;-52
2022/10/13 04:36:52;;;;;;;43.95;32.40;;;11.20;99.90;;;;;;5072384;28;20045;-53
2022/10/13 04:39:17;;;;;;;52.42;32.65;;;11.20;99.90;;;;;;5072271;28;20137;-52
2022/10/13 04:41:44;;;;;;;57.88;32.53;;;11.20;99.90;;;;;;5072196;28;20029;-56
2022/10/13 04:44:10;;;;;;;46.13;30.42;;;11.20;99.90;;;;;;5072072;28;20115;-54
2022/10/13 04:46:35;;;;;;;46.42;30.00;;;11.20;99.90;;;;;;5072160;28;20108;-55
2022/10/13 04:49:01;;;;;;;44.95;32.13;;;11.20;99.90;;;;;;5070715;28;20032;-54
2022/10/13 04:51:28;;;;;;;49.95;31.90;;;11.20;99.90;;;;;;5070599;28;20113;-55
2022/10/13 04:53:59;;;;;;;44.78;29.85;;;11.10;99.90;;;;;;5071927;28;20059;-56
2022/10/13 04:56:26;;;;;;;44.40;30.67;;;11.20;99.90;;;;;;5071985;28;20024;-53
2022/10/13 04:58:52;;;;;;;48.15;30.52;;;11.10;99.90;;;;;;5071820;28;20021;-55
2022/10/13 05:01:20;;;;;;;48.35;31.27;;;11.10;99.90;;;;;;5071663;28;20055;-55
2022/10/13 05:03:46;;;;;;;45.75;29.45;;;11.10;99.90;;;;;;5071690;28;20368;-54
2022/10/13 05:06:21;;;;;;;42.38;29.60;;;11.10;99.90;;;;;;5071776;28;20085;-54
2022/10/13 05:08:47;;;;;;;46.78;29.85;;;11.10;99.90;;;;;;5071555;28;20020;-53
2022/10/13 05:11:13;;;;;;;45.65;32.38;;;11.00;99.90;;;;;;5069959;28;20036;-53
2022/10/13 05:13:39;;;;;;;43.58;31.15;;;11.00;99.90;;;;;;5071664;28;20017;-54
2022/10/13 05:16:10;;;;;;;50.80;30.88;;;11.00;99.90;;;;;;5071418;28;20025;-56
2022/10/13 05:18:36;;;;;;;50.97;30.13;;;11.00;99.90;;;;;;5070066;28;20077;-54
2022/10/13 05:21:09;;;;;;;40.90;31.25;;;11.00;99.90;;;;;;5071188;28;20086;-55
2022/10/13 05:23:35;;;;;;;47.25;31.30;;;11.00;99.90;;;;;;5071624;28;20028;-55
2022/10/13 05:26:06;;;;;;;47.10;31.30;;;11.00;99.90;;;;;;5069736;28;20059;-54
2022/10/13 05:28:32;;;;;;;51.63;32.22;;;11.00;99.90;;;;;;5071438;28;20029;-54
2022/10/13 05:31:08;;;;;;;43.97;30.25;;;11.00;99.90;;;;;;5069750;28;20031;-52
2022/10/13 05:33:33;;;;;;;49.05;33.83;;;11.00;99.90;;;;;;5071027;28;20162;-53
2022/10/13 05:36:06;;;;;;;44.63;29.83;;;11.10;99.90;;;;;;5070913;28;20531;-54
2022/10/13 05:38:31;;;;;;;46.38;31.30;;;11.10;99.90;;;;;;5071267;28;20035;-55
2022/10/13 05:41:04;;;;;;;49.85;29.92;;;11.10;99.90;;;;;;5070804;28;20028;-57
2022/10/13 05:43:31;;;;;;;41.72;30.33;;;11.10;99.90;;;;;;5070738;28;20143;-56
2022/10/13 05:45:58;;;;;;;47.13;31.00;;;11.10;99.90;;;;;;5070800;28;20055;-53
2022/10/13 05:48:24;;;;;;;51.63;29.77;;;11.10;99.90;;;;;;5069731;28;20420;-55
2022/10/13 05:50:51;;;;;;;45.40;29.88;;;11.10;99.90;;;;;;5070829;28;20023;-54
2022/10/13 05:53:18;;;;;;;51.15;29.83;;;11.20;99.90;;;;;;5070600;28;20515;-54
2022/10/13 05:55:43;;;;;;;38.83;30.20;;;11.20;99.90;;;;;;5070660;28;20032;-54
2022/10/13 05:58:09;;;;;;;42.88;28.55;;;11.20;99.90;;;;;;5070606;28;20016;-55
2022/10/13 06:00:35;;;;;;;43.35;28.52;;;11.20;99.90;;;;;;5069325;28;20024;-54
2022/10/13 06:03:11;;;;;;;39.83;29.08;;;11.20;99.90;;;;;;5070401;28;20029;-54
2022/10/13 06:05:37;;;;;;;43.63;30.23;;;11.20;99.90;;;;;;5070780;28;20044;-56
2022/10/13 06:08:03;;;;;;;46.88;31.38;;;11.20;99.90;;;;;;5070347;28;20070;-54
2022/10/13 06:10:29;;;;;;;41.97;28.52;;;11.30;99.90;;;;;;5070628;28;20472;-52
2022/10/13 06:12:54;;;;;;;55.15;29.33;;;11.30;99.90;;;;;;5070390;28;20489;-55
2022/10/13 06:15:20;;;;;;;50.08;29.27;;;11.30;99.90;;;;;;5070578;28;20027;-55
2022/10/13 06:17:46;;;;;;;42.85;29.35;;;11.30;99.90;;;;;;5069158;28;20239;-55
2022/10/13 06:20:11;;;;;;;47.05;29.42;;;11.40;99.90;;;;;;5070308;28;20103;-56
2022/10/13 06:22:38;;;;;;;46.15;30.73;;;11.40;99.90;;;;;;5070289;28;20027;-55
2022/10/13 06:25:05;;;;;;;43.17;28.27;;;11.50;99.90;;;;;;5070502;28;20510;-55
2022/10/13 06:27:31;;;;;;;48.03;28.52;;;11.60;99.90;;;;;;5070224;28;20170;-55
2022/10/13 06:29:56;;;;;;;43.00;28.75;;;11.60;99.90;;;;;;5068828;28;20423;-53
2022/10/13 06:32:22;;;;;;;44.90;28.80;;;11.70;99.90;;;;;;5070450;28;20098;-53
2022/10/13 06:34:48;;;;;;;38.92;28.13;;;11.70;99.90;;;;;;5070313;28;20025;-54
2022/10/13 06:37:14;;;;;;;46.83;27.83;;;11.80;99.90;;;;;;5069986;28;20391;-54
2022/10/13 06:39:40;;;;;;;47.35;31.48;;;11.80;99.90;;;;;;5068860;28;20047;-56
2022/10/13 06:42:06;;;;;;;37.58;28.77;;;11.90;99.90;;;;;;5070131;28;20070;-52
2022/10/13 06:44:32;;;;;;;42.28;28.63;;;12.00;99.90;;;;;;5069027;28;20112;-53
2022/10/13 06:46:58;;;;;;;46.55;29.45;;;12.00;99.90;;;;;;5068653;28;20128;-54
2022/10/13 06:49:24;;;;;;;42.33;28.48;;;12.10;99.90;;;;;;5070124;28;20154;-57
2022/10/13 06:51:49;;;;;;;51.75;29.30;;;12.20;99.90;;;;;;5068617;28;20384;-53
2022/10/13 06:54:15;;;;;;;41.70;28.45;;;12.20;99.90;;;;;;5070690;28;20037;-56
2022/10/13 06:56:41;;;;;;;35.75;28.00;;;12.20;99.90;;;;;;5074250;28;20492;-53
2022/10/13 06:59:07;;;;;;;51.10;27.42;;;12.20;99.90;;;;;;5073921;28;20427;-53
2022/10/13 07:01:33;;;;;;;43.70;28.67;;;12.20;99.90;;;;;;5074154;28;20051;-52
2022/10/13 07:03:58;;;;;;;39.50;27.40;;;12.30;99.90;;;;;;5072928;28;20033;-55
2022/10/13 07:06:24;;;;;;;39.47;27.52;;;12.60;99.90;;;;;;5073955;28;20021;-53
2022/10/13 07:08:50;;;;;;;46.55;27.42;;;12.50;99.90;;;;;;5073738;28;20040;-55
2022/10/13 07:11:17;;;;;;;39.33;27.55;;;12.60;99.90;;;;;;5073705;28;20028;-52
2022/10/13 07:13:43;;;;;;;44.65;28.52;;;12.60;99.90;;;;;;5073972;28;20020;-55
2022/10/13 07:16:09;;;;;;;42.83;26.92;;;12.70;99.90;;;;;;5073640;28;20070;-53
2022/10/13 07:18:35;;;;;;;45.15;27.23;;;12.70;99.90;;;;;;5072385;28;20020;-53
2022/10/13 07:21:02;;;;;;;39.85;28.95;;;12.80;99.90;;;;;;5073482;28;20024;-53
2022/10/13 07:23:28;;;;;;;38.67;27.38;;;12.80;99.90;;;;;;5073857;28;20383;-54
2022/10/13 07:25:56;;;;;;;40.40;26.48;;;12.90;99.90;;;;;;5073633;28;20025;-56
2022/10/13 07:28:23;;;;;;;33.40;26.58;;;13.10;99.90;;;;;;5073502;28;20107;-56
2022/10/13 07:30:48;;;;;;;31.73;24.65;;;13.20;99.90;;;;;;5072205;28;20094;-53
2022/10/13 07:33:14;;;;;;;35.63;25.42;;;13.30;99.90;;;;;;5073479;28;20388;-55
2022/10/13 07:35:39;;;;;;;46.95;28.55;;;13.40;99.90;;;;;;5072014;28;20043;-54
2022/10/13 07:38:06;;;;;;;47.53;29.67;;;13.40;99.90;;;;;;5073196;28;20495;-53
2022/10/13 07:40:32;;;;;;;60.50;30.48;;;13.20;99.90;;;;;;5073361;28;20491;-56
2022/10/13 07:42:58;;;;;;;40.30;29.80;;;13.30;99.90;;;;;;5073298;28;20116;-52
2022/10/13 07:45:24;;;;;;;37.33;27.15;;;13.40;99.90;;;;;;5073219;28;20528;-57
2022/10/13 07:47:50;;;;;;;42.78;27.13;;;13.70;99.90;;;;;;5073091;28;20417;-56
2022/10/13 07:50:15;;;;;;;52.42;28.25;;;13.90;99.90;;;;;;5072848;28;20020;-53
2022/10/13 07:52:41;;;;;;;39.10;26.50;;;13.80;99.90;;;;;;5073229;28;20031;-55
2022/10/13 07:55:08;;;;;;;44.97;27.23;;;13.70;99.90;;;;;;5073022;28;20118;-53
2022/10/13 07:57:33;;;;;;;34.65;25.92;;;13.80;99.90;;;;;;5072978;28;20100;-55
2022/10/13 07:59:59;;;;;;;41.88;27.67;;;14.20;99.90;;;;;;5072873;28;20152;-56
2022/10/13 08:02:25;;;;;;;38.40;25.65;;;14.00;99.90;;;;;;5073086;28;20048;-56
2022/10/13 08:04:51;;;;;;;37.33;23.42;;;14.10;99.90;;;;;;5072626;28;20476;-57
2022/10/13 08:07:17;;;;;;;31.30;24.75;;;14.40;99.90;;;;;;5072908;28;20024;-54
2022/10/13 08:09:43;;;;;;;41.90;25.65;;;14.50;99.90;;;;;;5072745;28;20047;-54
2022/10/13 08:12:09;;;;;;;35.63;23.50;;;14.60;99.90;;;;;;5072636;28;20052;-55
2022/10/13 08:14:35;;;;;;;33.30;23.58;;;14.50;99.90;;;;;;5072660;28;20423;-54
2022/10/13 08:17:00;;;;;;;36.97;24.25;;;14.60;99.90;;;;;;5071232;28;20308;-54
2022/10/13 08:19:27;;;;;;;41.88;24.20;;;14.30;99.90;;;;;;5072598;28;20036;-54
2022/10/13 08:21:53;;;;;;;32.88;23.15;;;14.30;99.90;;;;;;5072609;28;20028;-53
2022/10/13 08:24:21;;;;;;;33.10;21.30;;;14.60;99.90;;;;;;5072459;28;20032;-55
2022/10/13 08:26:48;;;;;;;27.77;21.25;;;14.70;99.90;;;;;;5072522;28;20108;-56
2022/10/13 08:29:14;;;;;;;29.92;21.10;;;14.90;99.90;;;;;;5072558;28;20234;-56
2022/10/13 08:31:41;;;;;;;31.83;22.13;;;14.90;99.90;;;;;;5072335;28;20434;-55
2022/10/13 08:34:07;;;;;;;26.35;19.40;;;15.00;99.90;;;;;;5072152;28;20387;-56
2022/10/13 08:36:33;;;;;;;33.03;19.25;;;14.90;99.90;;;;;;5072316;28;20042;-54
2022/10/13 08:38:59;;;;;;;54.17;27.80;;;15.20;99.90;;;;;;5072364;28;20112;-55
2022/10/13 08:41:31;;;;;;;28.35;17.67;;;15.30;99.90;;;;;;5072299;28;20099;-55
2022/10/13 08:44:04;;;;;;;48.43;23.90;;;15.40;99.90;;;;;;5071990;28;20052;-53
2022/10/13 08:46:43;;;;;;;37.20;21.52;;;15.30;99.90;;;;;;5070869;28;20267;-56
2022/10/13 08:49:10;;;;;;;41.58;19.10;;;15.20;99.90;;;;;;5072001;28;20111;-53
2022/10/13 08:51:35;;;;;;;33.55;20.15;;;15.10;99.90;;;;;;5070674;28;20021;-55
2022/10/13 08:54:03;;;;;;;31.10;15.35;;;15.00;99.90;;;;;;5071951;28;20025;-54
2022/10/13 08:56:34;;;;;;;28.35;16.05;;;15.50;99.90;;;;;;5072044;28;20082;-55
2022/10/13 08:59:03;;;;;;;25.77;15.68;;;15.60;99.90;;;;;;5071603;28;20025;-52
2022/10/13 09:01:31;;;;;;;21.67;15.50;;;15.50;99.90;;;;;;5072047;28;20435;-52
2022/10/13 09:04:18;;;;;;;23.65;15.07;;;15.60;99.90;;;;;;5071818;28;20464;-53
2022/10/13 09:06:55;;;;;;;25.85;16.30;;;15.50;99.90;;;;;;5071767;28;20029;-55
2022/10/13 09:09:20;;;;;;;56.28;28.88;;;15.50;99.90;;;;;;5071644;28;20052;-54
2022/10/13 09:11:49;;;;;;;51.40;24.75;;;15.30;99.90;;;;;;5071774;28;20042;-52
2022/10/13 09:14:26;;;;;;;35.08;18.23;;;14.90;99.90;;;;;;5071405;28;20017;-55
2022/10/13 09:16:53;;;;;;;34.28;17.15;;;15.10;99.90;;;;;;5069764;28;20256;-56
2022/10/13 09:19:27;;;;;;;15.90;8.85;;;15.20;99.90;;;;;;5071302;28;20025;-52
2022/10/13 09:22:12;;;;;;;20.10;10.65;;;15.60;99.90;;;;;;5071352;28;20028;-54
2022/10/13 09:24:37;;;;;;;18.00;9.38;;;15.80;99.90;;;;;;5065565;28;20057;-56
2022/10/13 09:27:10;;;;;;;18.08;9.20;;;16.00;99.90;;;;;;5051503;28;20062;-57
2022/10/13 09:29:36;;;;;;;12.27;9.80;;;16.00;99.90;;;;;;5051850;28;20048;-56
2022/10/13 09:32:24;;;;;;;16.48;10.02;;;15.70;99.90;;;;;;5051188;28;20029;-56
2022/10/13 09:34:51;;;;;;;34.45;15.77;;;15.40;99.90;;;;;;5051181;28;20032;-53
2022/10/13 09:37:23;;;;;;;16.88;11.07;;;15.70;99.90;;;;;;5050931;28;20040;-54
2022/10/13 09:40:20;;;;;;;13.77;8.88;;;15.80;99.90;;;;;;5050677;28;20023;-55
2022/10/13 09:42:53;;;;;;;13.32;9.02;;;16.10;99.90;;;;;;5050914;28;20017;-56
2022/10/13 09:45:22;;;;;;;24.97;15.80;;;16.20;99.90;;;;;;5051090;28;20044;-56
2022/10/13 09:47:54;;;;;;;16.17;12.05;;;16.10;99.90;;;;;;5050954;28;20028;-54
2022/10/13 09:50:29;;;;;;;23.20;10.77;;;16.30;99.90;;;;;;5050927;28;20017;-54
2022/10/13 09:53:29;;;;;;;36.38;19.50;;;16.70;99.90;;;;;;5050971;28;20067;-56
2022/10/13 09:56:26;;;;;;;20.60;11.15;;;16.70;99.90;;;;;;5050881;28;20036;-55
2022/10/13 09:59:07;;;;;;;17.55;9.77;;;17.00;99.90;;;;;;5050768;28;20053;-56
2022/10/13 10:01:36;;;;;;;19.73;11.57;;;16.40;99.90;;;;;;5050600;28;20426;-55
2022/10/13 10:04:07;;;;;;;18.38;10.20;;;16.50;99.90;;;;;;5050782;28;20447;-52
2022/10/13 10:06:35;;;;;;;13.82;9.63;;;16.70;99.90;;;;;;5050840;28;20469;-56
2022/10/13 10:09:35;;;;;;;22.67;10.98;;;16.80;99.90;;;;;;5050462;28;20057;-55
2022/10/13 10:12:03;;;;;;;14.73;9.15;;;16.20;99.90;;;;;;5049800;28;20063;-56
2022/10/13 10:14:38;;;;;;;15.43;9.13;;;16.40;99.90;;;;;;5049208;28;20036;-52
2022/10/13 10:17:13;;;;;;;14.18;10.15;;;16.60;99.90;;;;;;5050331;28;20125;-53
2022/10/13 10:20:06;;;;;;;20.05;10.27;;;16.70;99.90;;;;;;5050513;28;20021;-56
2022/10/13 10:23:02;;;;;;;16.87;9.70;;;16.40;99.90;;;;;;5050282;28;20017;-56
2022/10/13 10:25:28;;;;;;;16.85;9.93;;;16.80;99.90;;;;;;5050293;28;20017;-57
2022/10/13 10:28:21;;;;;;;20.13;9.93;;;17.00;99.90;;;;;;5050307;28;20021;-56
2022/10/13 10:30:56;;;;;;;17.27;9.05;;;17.00;99.90;;;;;;5049576;28;20021;-53
2022/10/13 10:33:46;;;;;;;14.18;9.45;;;17.00;99.90;;;;;;5050216;28;20499;-53
2022/10/13 10:36:26;;;;;;;15.07;8.73;;;17.10;99.90;;;;;;5050126;28;20033;-55
2022/10/13 10:39:01;;;;;;;16.17;9.30;;;17.50;99.90;;;;;;5050147;28;20106;-55
2022/10/13 10:41:57;;;;;;;15.52;8.50;;;18.40;99.90;;;;;;5050682;28;20384;-54
2022/10/13 10:44:26;;;;;;;12.43;7.30;;;19.80;98.90;;;;;;5050153;28;20091;-58
2022/10/13 10:46:56;;;;;;;10.80;6.47;;;22.10;94.70;;;;;;5050213;28;20025;-56
2022/10/13 10:49:21;;;;;;;14.07;7.00;;;23.90;90.30;;;;;;5050058;28;20040;-58
2022/10/13 10:51:48;;;;;;;13.93;7.50;;;24.50;83.70;;;;;;5049956;28;20025;-58
2022/10/13 10:54:16;;;;;;;22.08;6.85;;;24.90;78.60;;;;;;5050035;28;20018;-57
2022/10/13 10:56:53;;;;;;;15.73;7.25;;;24.90;76.60;;;;;;5050046;28;20380;-53
2022/10/13 10:59:42;;;;;;;15.52;7.85;;;24.90;75.90;;;;;;5049793;28;20079;-56
2022/10/13 11:02:28;;;;;;;20.08;7.68;;;23.00;76.90;;;;;;5049830;28;20365;-56
2022/10/13 11:04:54;;;;;;;25.67;12.07;;;21.60;81.90;;;;;;5048567;28;20040;-56
2022/10/13 11:07:23;;;;;;;18.65;8.43;;;20.80;83.90;;;;;;5049997;28;20033;-57
2022/10/13 11:09:49;;;;;;;14.73;7.68;;;20.90;84.80;;;;;;5049656;28;20049;-57
2022/10/13 11:12:17;;;;;;;16.10;7.70;;;20.30;87.70;;;;;;5049625;28;20040;-56
2022/10/13 11:15:01;;;;;;;13.05;7.35;;;20.10;90.30;;;;;;5050158;28;20449;-56
2022/10/13 11:17:36;;;;;;;13.50;7.15;;;20.30;90.10;;;;;;5050094;28;20053;-55
2022/10/13 11:20:25;;;;;;;12.25;7.47;;;20.70;88.10;;;;;;5049747;28;20614;-56
2022/10/13 11:22:56;;;;;;;10.57;7.65;;;21.10;88.20;;;;;;5048216;28;20460;-56
2022/10/13 11:25:42;;;;;;;15.18;7.05;;;22.60;83.30;;;;;;5049757;28;20025;-57
2022/10/13 11:28:20;;;;;;;14.32;6.60;;;23.90;78.90;;;;;;5049585;28;20078;-56
2022/10/13 11:30:50;;;;;;;16.33;6.75;;;25.40;75.40;;;;;;5049621;28;20104;-57
2022/10/13 11:33:38;;;;;;;13.57;6.70;;;26.30;71.90;;;;;;5049641;28;20510;-57
2022/10/13 11:36:41;;;;;;;13.27;6.53;;;26.00;69.70;;;;;;5049565;28;20027;-57
2022/10/13 11:39:26;;;;;;;17.00;6.67;;;26.00;70.30;;;;;;5049458;28;20606;-57
2022/10/13 11:42:11;;;;;;;14.45;5.75;;;25.90;69.20;;;;;;5052809;28;20048;-56
2022/10/13 11:45:17;;;;;;;13.93;7.05;;;25.30;70.70;;;;;;5053362;28;20083;-58
2022/10/13 11:47:43;;;;;;;11.07;7.40;;;24.30;71.80;;;;;;5052575;28;20040;-57
2022/10/13 11:50:27;;;;;;;9.82;5.68;;;24.70;71.00;;;;;;5053183;28;20017;-58
2022/10/13 11:53:26;;;;;;;9.05;6.68;;;25.10;70.30;;;;;;5053227;28;20061;-56
2022/10/13 11:56:02;;;;;;;20.73;8.07;;;26.00;68.30;;;;;;5047991;28;20585;-57
2022/10/13 11:58:32;;;;;;;9.93;7.10;;;25.50;65.90;;;;;;5053076;28;20025;-58
2022/10/13 12:01:02;;;;;;;12.77;6.72;;;25.30;67.10;;;;;;5052864;28;20021;-58
2022/10/13 12:03:29;;;;;;;9.65;6.05;;;26.60;67.00;;;;;;5053186;28;20021;-56
2022/10/13 12:05:59;;;;;;;13.45;6.32;;;28.40;63.50;;;;;;5052938;28;20075;-58
2022/10/13 12:08:27;;;;;;;11.70;6.30;;;28.50;62.90;;;;;;5052828;28;20025;-57
2022/10/13 12:10:56;;;;;;;12.20;6.50;;;28.00;61.30;;;;;;5052807;28;20039;-57
2022/10/13 12:13:30;;;;;;;13.23;6.25;;;27.60;61.70;;;;;;5052975;28;20017;-57
2022/10/13 12:16:05;;;;;;;17.42;6.78;;;25.60;64.40;;;;;;5052633;28;20368;-58
2022/10/13 12:18:34;;;;;;;8.85;6.05;;;26.40;64.60;;;;;;5051593;28;20427;-57
2022/10/13 12:21:11;;;;;;;9.85;6.82;;;27.70;61.10;;;;;;5052623;28;20033;-55
2022/10/13 12:23:37;;;;;;;8.27;6.68;;;27.40;62.80;;;;;;5052598;28;20035;-55
2022/10/13 12:26:04;;;;;;;17.70;6.68;;;26.40;62.70;;;;;;5052371;28;20476;-55
2022/10/13 12:28:55;;;;;;;13.02;8.20;;;25.20;65.00;;;;;;5052799;28;20057;-56
2022/10/13 12:31:24;;;;;;;16.50;8.45;;;23.60;68.60;;;;;;5052352;28;20029;-55
2022/10/13 12:33:58;;;;;;;16.55;8.63;;;22.80;72.70;;;;;;5052580;28;20100;-55
2022/10/13 12:36:34;;;;;;;17.27;9.55;;;21.50;77.10;;;;;;5052357;28;20028;-53
2022/10/13 12:39:03;;;;;;;19.67;10.27;;;21.10;78.80;;;;;;5052289;28;20028;-57
2022/10/13 12:41:42;;;;;;;35.28;11.02;;;21.20;79.40;;;;;;5052439;28;20029;-55
2022/10/13 12:44:21;;;;;;;25.55;9.63;;;20.80;80.90;;;;;;5052061;28;20122;-56
2022/10/13 12:46:54;;;;;;;21.55;10.45;;;20.80;81.50;;;;;;5052261;28;20028;-54